Time;durP1;ratioP1;P1;durP2;ratioP2;P2;SDS_P1;SDS_P2;PMS_P1;PMS_P2;Temp;Humidity;BMP_temperature;BMP_pressure;BME280_temperature;BME280_humidity;BME280_pressure;Samples;Min_cycle;Max_cycle;Signal;HPM_P1;HPM_P2
2021/12/23 00:00:06;;;;;;;52.33;30.40;;;;;;;-2.28;93.42;101915.53;5031307;28;20454;-41
2021/12/23 00:02:34;;;;;;;45.60;27.10;;;;;;;-2.27;93.57;101909.41;5030601;28;20942;-43
2021/12/23 00:05:02;;;;;;;48.10;28.10;;;;;;;-2.24;93.75;101909.22;5031370;28;20942;-45
2021/12/23 00:07:30;;;;;;;58.77;31.07;;;;;;;-2.27;93.79;101905.00;5031332;28;20435;-43
2021/12/23 00:10:05;;;;;;;46.77;27.93;;;;;;;-2.25;93.56;101891.84;5033690;28;21097;-42
2021/12/23 00:12:35;;;;;;;54.80;27.73;;;;;;;-2.22;93.96;101885.63;5034663;28;20428;-42
2021/12/23 00:15:09;;;;;;;55.73;29.40;;;;;;;-2.23;93.91;101879.53;5034866;28;20922;-42
2021/12/23 00:17:58;;;;;;;46.67;28.40;;;;;;;-2.23;93.79;101874.31;5034941;28;20434;-42
2021/12/23 00:23:26;;;;;;;45.07;28.80;;;;;;;-2.19;93.95;101875.84;5034222;28;20469;-44
2021/12/23 00:25:58;;;;;;;49.57;30.30;;;;;;;-2.17;93.96;101883.56;5035118;28;20511;-42
2021/12/23 00:28:26;;;;;;;61.43;33.73;;;;;;;-2.15;93.59;101879.13;5035024;28;20543;-40
2021/12/23 00:30:55;;;;;;;51.40;30.43;;;;;;;-2.20;93.99;101871.53;5034748;28;20532;-40
2021/12/23 00:33:23;;;;;;;44.77;27.00;;;;;;;-2.16;93.79;101870.44;5034124;28;20610;-41
2021/12/23 00:35:53;;;;;;;55.30;30.80;;;;;;;-2.13;93.95;101865.03;5034450;28;20476;-41
2021/12/23 00:38:26;;;;;;;49.07;29.80;;;;;;;-2.12;93.38;101861.47;5034822;28;20458;-40
2021/12/23 00:40:54;;;;;;;63.13;32.40;;;;;;;-2.11;94.03;101852.72;5034697;28;20432;-41
2021/12/23 00:43:22;;;;;;;57.67;31.23;;;;;;;-2.09;93.71;101850.03;5033900;28;20539;-41
2021/12/23 00:45:50;;;;;;;58.03;32.03;;;;;;;-2.08;93.75;101851.69;5034512;28;20431;-43
2021/12/23 00:48:19;;;;;;;54.93;31.10;;;;;;;-2.06;94.08;101855.06;5034184;28;20551;-41
2021/12/23 00:50:48;;;;;;;53.47;30.23;;;;;;;-2.07;93.67;101850.75;5034719;28;20428;-43
2021/12/23 00:53:19;;;;;;;54.77;29.77;;;;;;;-2.06;94.04;101847.22;5033618;28;20460;-41
2021/12/23 00:55:49;;;;;;;57.37;32.10;;;;;;;-2.03;93.46;101840.03;5034211;28;20563;-44
2021/12/23 00:58:17;;;;;;;52.83;29.33;;;;;;;-2.01;93.49;101834.72;5034099;28;20492;-43
2021/12/23 01:00:45;;;;;;;55.60;30.77;;;;;;;-2.00;93.93;101834.63;5034181;28;20522;-42
2021/12/23 01:03:14;;;;;;;55.17;31.33;;;;;;;-1.97;93.85;101831.00;5033322;28;21060;-42
2021/12/23 01:05:43;;;;;;;49.50;27.43;;;;;;;-1.96;93.69;101830.91;5034379;28;20464;-42
2021/12/23 01:08:11;;;;;;;53.43;29.97;;;;;;;-1.94;93.77;101830.84;5034087;28;20535;-42
2021/12/23 01:10:38;;;;;;;61.13;33.87;;;;;;;-1.94;94.06;101823.81;5034069;28;20439;-41
2021/12/23 01:13:13;;;;;;;59.30;31.70;;;;;;;-1.93;93.83;101832.50;5033239;28;20467;-44
2021/12/23 01:16:06;;;;;;;57.20;31.13;;;;;;;-1.93;94.02;101828.13;5033749;28;20448;-43
2021/12/23 01:18:42;;;;;;;56.70;30.20;;;;;;;-1.93;94.19;101829.88;5033822;28;20456;-42
2021/12/23 01:21:16;;;;;;;53.33;31.30;;;;;;;-1.91;94.10;101822.81;5033456;28;20999;-41
2021/12/23 01:23:46;;;;;;;53.43;31.37;;;;;;;-1.91;93.86;101826.25;5033022;28;20472;-42
2021/12/23 01:26:18;;;;;;;53.23;29.50;;;;;;;-1.92;93.70;101818.50;5034215;28;20834;-42
2021/12/23 01:28:48;;;;;;;55.80;30.17;;;;;;;-1.92;93.76;101810.66;5033639;28;20547;-42
2021/12/23 01:31:16;;;;;;;58.27;30.80;;;;;;;-1.93;93.87;101796.75;5033611;28;20438;-41
2021/12/23 01:33:44;;;;;;;56.33;30.53;;;;;;;-1.92;94.20;101793.22;5032960;28;20460;-44
2021/12/23 01:36:12;;;;;;;50.47;30.80;;;;;;;-1.92;94.17;101798.44;5033334;28;20468;-43
2021/12/23 01:38:40;;;;;;;51.03;28.33;;;;;;;-1.93;93.76;101788.91;5033666;28;20462;-43
2021/12/23 01:41:08;;;;;;;56.90;31.37;;;;;;;-1.93;94.22;101788.06;5033565;28;20516;-43
2021/12/23 01:43:36;;;;;;;49.20;33.10;;;;;;;-1.94;94.15;101789.00;5032708;28;20465;-43
2021/12/23 01:46:04;;;;;;;56.37;30.47;;;;;;;-1.97;93.77;101790.00;5033281;28;20424;-43
2021/12/23 01:48:32;;;;;;;49.23;29.90;;;;;;;-1.98;93.78;101777.91;5033081;28;20468;-42
2021/12/23 01:51:00;;;;;;;52.83;30.40;;;;;;;-1.99;94.11;101781.44;5033217;28;20432;-41
2021/12/23 01:53:29;;;;;;;53.47;31.00;;;;;;;-2.01;93.55;101775.47;5032395;28;20547;-42
2021/12/23 01:55:57;;;;;;;55.30;29.60;;;;;;;-1.99;93.67;101773.59;5033268;28;20824;-41
2021/12/23 01:58:25;;;;;;;47.17;27.10;;;;;;;-1.99;93.72;101767.50;5033033;28;20539;-43
2021/12/23 02:00:53;;;;;;;48.60;28.97;;;;;;;-1.98;93.66;101761.38;5033061;28;20520;-45
2021/12/23 02:03:21;;;;;;;54.93;28.83;;;;;;;-1.99;94.00;101755.28;5021345;28;20468;-42
2021/12/23 02:05:49;;;;;;;50.50;28.83;;;;;;;-1.99;93.97;101742.22;5032831;28;20533;-43
2021/12/23 02:08:32;;;;;;;50.03;32.33;;;;;;;-1.98;93.60;101733.47;5032986;28;20467;-42
2021/12/23 02:11:00;;;;;;;54.80;30.17;;;;;;;-1.97;93.70;101729.06;5032946;28;20460;-44
2021/12/23 02:13:29;;;;;;;54.63;29.63;;;;;;;-1.98;93.85;101719.53;5027045;28;20498;-41
2021/12/23 02:15:57;;;;;;;54.27;28.40;;;;;;;-2.00;93.56;101705.75;5032605;28;20439;-43
2021/12/23 02:18:24;;;;;;;53.00;28.00;;;;;;;-1.97;93.53;101700.31;5032699;28;20478;-42
2021/12/23 02:20:54;;;;;;;57.00;30.60;;;;;;;-1.97;93.85;101693.28;5032604;28;20519;-41
2021/12/23 02:23:22;;;;;;;51.87;28.87;;;;;;;-1.96;93.70;101704.59;5031914;28;21032;-41
2021/12/23 02:25:50;;;;;;;45.00;26.13;;;;;;;-1.98;93.87;101681.19;5032699;28;20432;-43
2021/12/23 02:28:18;;;;;;;51.30;30.60;;;;;;;-1.94;93.74;101679.22;5032241;28;20460;-43
2021/12/23 02:30:51;;;;;;;51.53;29.73;;;;;;;-1.93;94.08;101683.50;5032782;28;20442;-43
2021/12/23 02:33:20;;;;;;;54.70;31.83;;;;;;;-1.91;94.12;101686.88;5031313;28;20468;-42
2021/12/23 02:35:48;;;;;;;49.57;27.00;;;;;;;-1.90;93.76;101675.47;5032350;28;20436;-45
2021/12/23 02:38:17;;;;;;;46.70;25.93;;;;;;;-1.88;93.71;101679.66;5032248;28;20472;-44
2021/12/23 02:40:45;;;;;;;47.43;27.63;;;;;;;-1.85;94.11;101678.66;5032267;28;20515;-42
2021/12/23 02:43:15;;;;;;;52.10;28.63;;;;;;;-1.83;94.09;101674.16;5031551;28;20467;-41
2021/12/23 02:45:44;;;;;;;54.23;29.10;;;;;;;-1.84;93.67;101665.47;5032483;28;20446;-42
2021/12/23 02:48:14;;;;;;;50.67;28.90;;;;;;;-1.83;94.27;101661.94;5032102;28;20440;-42
2021/12/23 02:50:42;;;;;;;49.00;28.83;;;;;;;-1.82;94.21;101658.38;5032279;28;20415;-43
2021/12/23 02:53:10;;;;;;;52.50;28.30;;;;;;;-1.82;94.17;101655.75;5031452;28;20478;-44
2021/12/23 02:55:39;;;;;;;50.80;29.33;;;;;;;-1.78;93.65;101649.41;5032014;28;20442;-42
2021/12/23 02:58:09;;;;;;;48.20;28.40;;;;;;;-1.79;94.51;101637.25;5032134;28;20476;-42
2021/12/23 03:00:37;;;;;;;46.67;27.50;;;;;;;-1.79;94.12;101632.03;5032175;28;20520;-41
2021/12/23 03:03:06;;;;;;;44.07;27.20;;;;;;;-1.77;93.93;101624.13;5031356;28;20522;-41
2021/12/23 03:05:34;;;;;;;43.10;26.30;;;;;;;-1.74;94.40;101621.31;5031881;28;20436;-42
2021/12/23 03:08:02;;;;;;;47.47;28.10;;;;;;;-1.73;93.89;101610.72;5031744;28;20475;-44
2021/12/23 03:10:30;;;;;;;45.97;28.30;;;;;;;-1.73;93.90;101602.03;5031787;28;20523;-42
2021/12/23 03:12:59;;;;;;;45.37;27.20;;;;;;;-1.72;94.25;101607.19;5031349;28;20539;-44
2021/12/23 03:15:26;;;;;;;46.47;29.07;;;;;;;-1.69;94.37;101596.53;5031715;28;21040;-41
2021/12/23 03:17:54;;;;;;;38.73;25.37;;;;;;;-1.69;93.69;101588.69;5023901;28;20567;-42
2021/12/23 03:20:22;;;;;;;43.90;29.27;;;;;;;-1.69;93.81;101587.84;5031530;28;20462;-42
2021/12/23 03:22:49;;;;;;;43.27;25.67;;;;;;;-1.65;93.94;101578.03;5031268;28;20543;-42
2021/12/23 03:25:17;;;;;;;45.13;26.30;;;;;;;-1.65;93.57;101568.44;5031882;28;20523;-43
2021/12/23 03:27:45;;;;;;;43.30;26.37;;;;;;;-1.64;93.81;101564.03;5031803;28;20536;-44
2021/12/23 03:30:14;;;;;;;45.40;25.97;;;;;;;-1.64;93.75;101562.25;5031650;28;20475;-42
2021/12/23 03:32:41;;;;;;;48.80;28.67;;;;;;;-1.63;93.81;101561.31;5031020;28;20877;-41
2021/12/23 03:35:09;;;;;;;46.27;26.77;;;;;;;-1.63;93.70;101550.84;5031532;28;20440;-42
2021/12/23 03:37:37;;;;;;;45.87;27.70;;;;;;;-1.62;94.18;101552.53;5031715;28;20615;-43
2021/12/23 03:40:06;;;;;;;45.03;28.37;;;;;;;-1.63;93.67;101548.22;5031625;28;20456;-42
2021/12/23 03:42:34;;;;;;;44.17;26.97;;;;;;;-1.60;94.02;101555.03;5030810;28;20517;-42
2021/12/23 03:45:02;;;;;;;45.73;26.30;;;;;;;-1.58;93.98;101550.56;5035530;28;20527;-42
2021/12/23 03:47:31;;;;;;;49.40;27.93;;;;;;;-1.57;94.05;101540.00;5035450;28;20527;-42
2021/12/23 03:49:59;;;;;;;42.40;27.80;;;;;;;-1.58;93.84;101533.06;5035372;28;20563;-42
2021/12/23 03:52:27;;;;;;;43.70;27.40;;;;;;;-1.59;93.62;101520.97;5034824;28;20494;-43
2021/12/23 03:54:59;;;;;;;41.53;25.87;;;;;;;-1.60;93.99;101507.97;5035372;28;20428;-42
2021/12/23 03:57:27;;;;;;;42.37;26.83;;;;;;;-1.63;93.97;101509.00;5035467;28;20862;-43
2021/12/23 03:59:55;;;;;;;41.37;25.50;;;;;;;-1.60;93.32;101513.19;5035242;28;20874;-41
2021/12/23 04:02:22;;;;;;;47.47;28.43;;;;;;;-1.56;93.97;101510.28;5052925;23;21715;-43
2021/12/23 04:04:51;;;;;;;40.57;27.10;;;;;;;-1.54;93.95;101503.19;5066400;28;20499;-41
2021/12/23 04:07:19;;;;;;;43.90;26.10;;;;;;;-1.54;93.90;101511.03;5074895;28;20437;-42
2021/12/23 04:09:47;;;;;;;39.80;25.00;;;;;;;-1.50;93.48;101509.06;5075080;28;20533;-44
2021/12/23 04:12:14;;;;;;;35.77;23.70;;;;;;;-1.51;93.96;101502.97;5075113;28;20537;-43
2021/12/23 04:14:42;;;;;;;49.97;26.83;;;;;;;-1.51;93.28;101497.75;5074300;28;20461;-42
2021/12/23 04:17:10;;;;;;;38.83;24.30;;;;;;;-1.49;93.78;101489.81;5060987;28;20522;-46
2021/12/23 04:19:38;;;;;;;45.63;28.20;;;;;;;-1.52;92.98;101480.38;5055046;28;20467;-41
2021/12/23 04:22:07;;;;;;;43.13;25.10;;;;;;;-1.53;93.02;101472.63;5054865;28;20439;-43
2021/12/23 04:24:34;;;;;;;40.77;25.83;;;;;;;-1.55;93.20;101472.72;5054105;28;20542;-42
2021/12/23 04:27:02;;;;;;;47.40;27.57;;;;;;;-1.56;93.04;101481.53;5054735;28;20430;-44
2021/12/23 04:29:29;;;;;;;42.40;26.03;;;;;;;-1.55;93.28;101474.53;5054658;28;20441;-41
2021/12/23 04:31:59;;;;;;;41.87;25.30;;;;;;;-1.56;93.00;101460.59;5054629;28;20433;-44
2021/12/23 04:34:26;;;;;;;40.27;25.83;;;;;;;-1.61;93.52;101460.03;5053974;28;20467;-47
2021/12/23 04:36:54;;;;;;;40.83;25.87;;;;;;;-1.62;93.51;101458.41;5053101;28;20434;-42
2021/12/23 04:39:23;;;;;;;40.30;24.70;;;;;;;-1.63;93.25;101456.69;5054558;28;20478;-42
2021/12/23 04:41:51;;;;;;;46.93;26.77;;;;;;;-1.61;93.59;101462.66;5054394;28;20954;-42
2021/12/23 04:44:18;;;;;;;44.17;26.47;;;;;;;-1.58;93.57;101441.53;5053766;28;20460;-45
2021/12/23 04:46:46;;;;;;;45.80;28.77;;;;;;;-1.58;93.87;101443.34;5054470;28;20434;-41
2021/12/23 04:49:14;;;;;;;40.77;25.63;;;;;;;-1.61;93.54;101446.97;5054518;28;20435;-43
2021/12/23 04:51:41;;;;;;;40.73;26.10;;;;;;;-1.58;93.80;101433.69;5054125;28;20431;-42
2021/12/23 04:54:09;;;;;;;38.50;24.47;;;;;;;-1.56;93.35;101446.69;5053568;28;20546;-43
2021/12/23 04:56:38;;;;;;;41.67;24.27;;;;;;;-1.54;93.51;101435.16;5053571;28;20511;-41
2021/12/23 04:59:05;;;;;;;49.93;27.90;;;;;;;-1.54;93.61;101432.56;5053933;28;20471;-41
2021/12/23 05:01:34;;;;;;;43.23;26.37;;;;;;;-1.55;93.24;101414.38;5054500;28;20432;-42
2021/12/23 05:04:02;;;;;;;37.67;25.40;;;;;;;-1.55;93.62;101416.97;5053546;28;20463;-43
2021/12/23 05:06:30;;;;;;;34.33;22.60;;;;;;;-1.52;93.72;101412.34;5054466;28;20497;-44
2021/12/23 05:08:58;;;;;;;45.53;26.37;;;;;;;-1.53;93.73;101394.16;5054505;28;20431;-43
2021/12/23 05:11:25;;;;;;;40.60;25.97;;;;;;;-1.53;93.10;101395.00;5054461;28;20586;-44
2021/12/23 05:13:54;;;;;;;40.00;25.40;;;;;;;-1.50;93.74;101383.50;5053396;28;20467;-42
2021/12/23 05:16:22;;;;;;;35.03;24.47;;;;;;;-1.48;93.60;101368.53;5054061;28;20519;-42
2021/12/23 05:18:50;;;;;;;38.27;24.77;;;;;;;-1.49;93.64;101370.31;5053794;28;20467;-42
2021/12/23 05:21:17;;;;;;;34.63;25.00;;;;;;;-1.47;93.56;101365.81;5047887;28;20523;-42
2021/12/23 05:23:45;;;;;;;37.93;26.10;;;;;;;-1.44;93.73;101365.63;5031217;28;20511;-46
2021/12/23 05:26:12;;;;;;;40.47;23.27;;;;;;;-1.40;93.69;101367.06;5032850;28;20804;-45
2021/12/23 05:28:40;;;;;;;36.47;23.50;;;;;;;-1.37;93.28;101359.00;5032305;28;20547;-44
2021/12/23 05:31:09;;;;;;;33.90;24.67;;;;;;;-1.34;93.37;101368.41;5032685;28;20438;-48
2021/12/23 05:33:37;;;;;;;37.80;24.30;;;;;;;-1.31;93.12;101355.13;5031566;28;20464;-43
2021/12/23 05:36:05;;;;;;;41.17;26.97;;;;;;;-1.32;93.49;101359.53;5032263;28;20447;-42
2021/12/23 05:38:33;;;;;;;38.43;23.43;;;;;;;-1.29;93.57;101354.09;5031813;28;20981;-42
2021/12/23 05:41:00;;;;;;;37.00;27.30;;;;;;;-1.26;93.23;101342.59;5032476;28;20814;-42
2021/12/23 05:43:28;;;;;;;43.63;27.10;;;;;;;-1.27;93.15;101319.97;5031391;28;20503;-46
2021/12/23 05:45:56;;;;;;;38.83;26.00;;;;;;;-1.29;93.08;101308.78;5032050;28;20836;-43
2021/12/23 05:48:25;;;;;;;38.70;23.33;;;;;;;-1.33;92.71;101305.53;5031705;28;20505;-45
2021/12/23 05:50:53;;;;;;;41.03;26.67;;;;;;;-1.36;92.08;101295.28;5032153;28;20428;-44
2021/12/23 05:53:21;;;;;;;37.50;25.63;;;;;;;-1.35;92.45;101293.50;5006950;28;20476;-41
2021/12/23 05:55:49;;;;;;;33.33;23.90;;;;;;;-1.36;92.59;101302.28;5031506;28;20488;-45
2021/12/23 05:58:16;;;;;;;41.20;25.60;;;;;;;-1.38;92.18;101302.41;5030494;28;20968;-46
2021/12/23 06:00:44;;;;;;;39.83;26.60;;;;;;;-1.43;92.47;101280.09;5006431;28;20456;-40
2021/12/23 06:03:12;;;;;;;37.90;25.00;;;;;;;-1.46;92.33;101267.25;5031378;28;20542;-41
2021/12/23 06:05:41;;;;;;;37.27;23.90;;;;;;;-1.54;92.35;101238.19;5031866;28;20440;-41
2021/12/23 06:08:09;;;;;;;34.80;24.63;;;;;;;-1.57;92.81;101256.69;5029756;28;20442;-47
2021/12/23 06:10:36;;;;;;;39.90;27.47;;;;;;;-1.55;93.33;101255.63;5031394;28;20856;-43
2021/12/23 06:13:04;;;;;;;33.30;24.37;;;;;;;-1.50;92.85;101268.41;5031265;28;20547;-41
2021/12/23 06:15:32;;;;;;;31.93;23.67;;;;;;;-1.43;93.05;101269.63;5031564;28;20812;-41
2021/12/23 06:17:59;;;;;;;34.80;23.37;;;;;;;-1.35;93.38;101267.34;5051039;28;20439;-43
2021/12/23 06:20:27;;;;;;;37.03;24.50;;;;;;;-1.31;92.94;101268.78;5050922;28;20554;-46
2021/12/23 06:22:56;;;;;;;38.70;24.23;;;;;;;-1.27;93.32;101262.41;5050981;28;20959;-44
2021/12/23 06:25:24;;;;;;;38.80;25.43;;;;;;;-1.28;92.60;101266.78;5051043;28;20439;-43
2021/12/23 06:27:51;;;;;;;38.20;25.80;;;;;;;-1.23;92.65;101262.09;5050851;28;20519;-44
2021/12/23 06:30:19;;;;;;;39.77;24.73;;;;;;;-1.19;92.77;101254.84;5050964;28;20471;-42
2021/12/23 06:32:49;;;;;;;37.73;24.80;;;;;;;-1.16;92.77;101250.22;5051458;28;20478;-43
2021/12/23 06:35:17;;;;;;;38.57;25.30;;;;;;;-1.18;92.24;101249.50;5051047;28;20486;-42
2021/12/23 06:37:46;;;;;;;34.57;24.93;;;;;;;-1.17;92.13;101250.34;5050840;28;20970;-41
2021/12/23 06:40:15;;;;;;;36.70;24.27;;;;;;;-1.17;92.55;101243.34;5050521;28;20474;-42
2021/12/23 06:42:43;;;;;;;35.20;24.93;;;;;;;-1.19;92.25;101239.97;5050323;28;21006;-41
2021/12/23 06:45:11;;;;;;;38.40;24.73;;;;;;;-1.15;92.61;101243.22;5050562;28;21028;-42
2021/12/23 06:47:39;;;;;;;38.77;24.40;;;;;;;-1.11;92.40;101234.22;5050543;28;20969;-45
2021/12/23 06:50:09;;;;;;;43.63;25.07;;;;;;;-1.13;92.75;101229.06;5050477;28;20459;-44
2021/12/23 06:52:37;;;;;;;40.17;25.67;;;;;;;-1.15;91.78;101227.50;5050974;28;20546;-45
2021/12/23 06:55:07;;;;;;;38.70;23.03;;;;;;;-1.12;92.10;101219.44;5050287;28;20441;-43
2021/12/23 06:57:37;;;;;;;38.03;24.60;;;;;;;-1.10;92.00;101214.91;5050724;28;20797;-42
2021/12/23 07:00:06;;;;;;;32.03;24.30;;;;;;;-1.08;91.95;101210.44;5049994;28;20463;-44
2021/12/23 07:02:37;;;;;;;37.10;25.13;;;;;;;-1.08;91.63;101205.19;5050424;28;20832;-44
2021/12/23 07:05:06;;;;;;;39.30;24.57;;;;;;;-1.06;91.47;101220.78;5050253;28;20475;-44
2021/12/23 07:07:41;;;;;;;36.43;23.07;;;;;;;-1.05;91.93;101225.06;5050292;28;20434;-50
2021/12/23 07:10:09;;;;;;;32.13;24.07;;;;;;;-1.04;91.96;101221.50;5050072;28;20470;-46
2021/12/23 07:12:39;;;;;;;39.63;24.87;;;;;;;-1.02;91.90;101210.00;5048347;28;20457;-50
2021/12/23 07:15:07;;;;;;;37.67;25.50;;;;;;;-1.06;91.27;101192.81;5049790;28;20464;-51
2021/12/23 07:17:35;;;;;;;36.73;23.40;;;;;;;-1.07;91.93;101193.75;5049887;28;20868;-43
2021/12/23 07:20:04;;;;;;;33.23;23.80;;;;;;;-1.04;91.60;101188.31;5049330;28;20557;-47
2021/12/23 07:22:32;;;;;;;33.97;25.37;;;;;;;-1.04;91.90;101197.94;5050170;28;20459;-45
2021/12/23 07:25:00;;;;;;;39.73;24.40;;;;;;;-1.00;92.05;101199.41;5049071;28;20506;-46
2021/12/23 07:27:27;;;;;;;34.70;24.50;;;;;;;-0.95;92.38;101205.97;5050325;28;21154;-44
2021/12/23 07:29:56;;;;;;;33.37;23.27;;;;;;;-0.92;92.87;101203.13;5049873;28;20827;-50
2021/12/23 07:32:24;;;;;;;35.93;24.53;;;;;;;-0.91;92.81;101199.56;5050051;28;20455;-45
2021/12/23 07:34:52;;;;;;;46.33;27.63;;;;;;;-0.89;92.73;101189.81;5049594;28;20439;-46
2021/12/23 07:37:21;;;;;;;54.50;31.83;;;;;;;-0.87;92.73;101185.31;5050498;28;20508;-44
2021/12/23 07:39:49;;;;;;;69.63;39.87;;;;;;;-0.91;92.53;101167.31;5047437;28;20471;-44
2021/12/23 07:42:29;;;;;;;42.87;28.33;;;;;;;-0.85;92.69;101178.19;5047706;28;20462;-45
2021/12/23 07:44:59;;;;;;;50.40;30.43;;;;;;;-0.83;93.08;101173.66;5049746;28;20972;-44
2021/12/23 07:47:27;;;;;;;32.53;24.63;;;;;;;-0.81;93.25;101170.94;5050111;28;20431;-43
2021/12/23 07:49:54;;;;;;;44.87;29.47;;;;;;;-0.76;93.48;101169.63;5049522;28;20467;-44
2021/12/23 07:52:22;;;;;;;34.07;24.97;;;;;;;-0.73;93.50;101189.53;5050202;28;20465;-48
2021/12/23 07:54:52;;;;;;;38.43;23.50;;;;;;;-0.69;93.77;101177.88;5049807;28;20781;-43
2021/12/23 07:57:19;;;;;;;38.70;23.90;;;;;;;-0.68;93.34;101169.91;5050031;28;20964;-43
2021/12/23 07:59:47;;;;;;;40.87;27.07;;;;;;;-0.66;93.31;101180.28;5048951;28;21169;-45
2021/12/23 08:02:16;;;;;;;35.30;26.73;;;;;;;-0.68;93.71;101158.59;5050200;28;20461;-43
2021/12/23 08:04:46;;;;;;;49.20;25.83;;;;;;;-0.68;93.30;101159.41;5049540;28;20439;-44
2021/12/23 08:07:14;;;;;;;46.70;26.37;;;;;;;-0.68;93.62;101142.88;5050108;28;20927;-48
2021/12/23 08:09:41;;;;;;;37.83;26.23;;;;;;;-0.72;93.54;101133.59;5049097;28;20462;-46
2021/12/23 08:12:10;;;;;;;42.07;25.70;;;;;;;-0.74;93.72;101123.22;5049665;28;20428;-47
2021/12/23 08:14:38;;;;;;;48.47;31.13;;;;;;;-0.79;93.08;101107.03;5049273;28;20439;-47
2021/12/23 08:17:21;;;;;;;46.80;29.40;;;;;;;-0.85;93.41;101107.47;5050056;28;20526;-46
2021/12/23 08:19:49;;;;;;;41.07;26.67;;;;;;;-0.89;93.74;101103.41;5047227;28;20479;-44
2021/12/23 08:22:17;;;;;;;45.83;27.10;;;;;;;-0.92;93.24;101093.16;5049933;28;20451;-44
2021/12/23 08:24:44;;;;;;;39.77;26.27;;;;;;;-0.96;93.41;101104.00;5048923;28;20530;-47
2021/12/23 08:27:12;;;;;;;39.20;25.57;;;;;;;-0.98;93.88;101103.25;5049752;28;20925;-46
2021/12/23 08:29:40;;;;;;;36.20;25.47;;;;;;;-0.98;93.41;101109.34;5049070;28;20550;-45
2021/12/23 08:32:08;;;;;;;40.57;25.37;;;;;;;-0.96;93.91;101123.16;5053540;28;20801;-43
2021/12/23 08:34:37;;;;;;;30.33;23.00;;;;;;;-0.87;94.11;101121.63;5052530;28;20438;-44
2021/12/23 08:37:10;;;;;;;39.57;25.20;;;;;;;-0.81;93.39;101123.81;5053271;28;20946;-43
2021/12/23 08:39:38;;;;;;;35.83;25.33;;;;;;;-0.78;93.60;101111.31;5052399;28;20469;-43
2021/12/23 08:42:07;;;;;;;32.93;24.40;;;;;;;-0.78;93.18;101111.31;5053486;28;20435;-44
2021/12/23 08:44:35;;;;;;;36.73;24.03;;;;;;;-0.72;93.42;101115.25;5052780;28;20515;-42
2021/12/23 08:47:03;;;;;;;31.43;23.07;;;;;;;-0.70;92.52;101126.44;5053200;28;21197;-45
2021/12/23 08:49:31;;;;;;;33.70;24.00;;;;;;;-0.68;92.59;101108.81;5052320;28;20465;-49
2021/12/23 08:52:00;;;;;;;35.37;23.47;;;;;;;-0.62;92.84;101105.75;5053048;28;20426;-45
2021/12/23 08:54:27;;;;;;;32.67;23.97;;;;;;;-0.56;93.24;101108.72;5052585;28;20435;-43
2021/12/23 08:56:56;;;;;;;34.40;23.73;;;;;;;-0.56;92.56;101119.22;5052950;28;20427;-45
2021/12/23 08:59:23;;;;;;;34.57;26.07;;;;;;;-0.51;92.89;101111.03;5046721;28;20471;-45
2021/12/23 09:01:51;;;;;;;29.40;23.10;;;;;;;-0.49;92.42;101113.50;5052957;28;21020;-48
2021/12/23 09:04:20;;;;;;;32.03;24.77;;;;;;;-0.44;92.46;101117.44;5051992;28;20458;-48
2021/12/23 09:06:49;;;;;;;35.97;24.23;;;;;;;-0.39;91.98;101096.16;5053044;28;20443;-47
2021/12/23 09:09:18;;;;;;;40.33;25.87;;;;;;;-0.38;91.82;101082.91;5051623;28;20539;-43
2021/12/23 09:11:46;;;;;;;35.90;23.97;;;;;;;-0.35;91.78;101071.34;5052916;28;20442;-49
2021/12/23 09:14:14;;;;;;;35.10;22.47;;;;;;;-0.33;91.59;101067.66;5052086;28;21203;-44
2021/12/23 09:16:42;;;;;;;34.27;22.10;;;;;;;-0.28;91.57;101060.28;5052735;28;20439;-48
2021/12/23 09:19:10;;;;;;;32.67;22.97;;;;;;;-0.31;90.73;101042.19;5051977;28;20459;-43
2021/12/23 09:21:38;;;;;;;28.93;20.47;;;;;;;-0.31;90.22;101047.44;5052721;28;20479;-48
2021/12/23 09:24:07;;;;;;;31.73;21.27;;;;;;;-0.31;90.23;101038.72;5051707;28;21260;-43
2021/12/23 09:26:46;;;;;;;34.00;22.97;;;;;;;-0.35;89.97;101027.66;5052487;28;20438;-48
2021/12/23 09:32:38;;;;;;;29.10;22.30;;;;;;;-0.29;90.30;101023.72;5051396;28;20459;-46
2021/12/23 09:34:47;;;;;;;33.30;21.63;;;;;;;-0.26;89.13;101028.72;5051568;28;20449;-43
2021/12/23 09:37:15;;;;;;;29.87;20.20;;;;;;;-0.25;88.96;101054.81;5052309;28;20445;-43
2021/12/23 09:39:44;;;;;;;29.83;21.90;;;;;;;-0.21;89.23;101050.97;5051493;28;20534;-49
2021/12/23 09:42:14;;;;;;;72.73;29.03;;;;;;;-0.12;90.45;101060.75;5051945;28;21075;-43
2021/12/23 09:44:42;;;;;;;38.13;22.80;;;;;;;-0.02;91.17;101034.66;5051854;28;20439;-45
2021/12/23 09:47:10;;;;;;;26.37;20.43;;;;;;;0.08;90.68;101048.69;5052075;28;20432;-46
2021/12/23 09:49:37;;;;;;;35.27;23.37;;;;;;;0.16;89.84;101050.69;5051326;28;20546;-45
2021/12/23 09:52:07;;;;;;;28.50;22.00;;;;;;;0.19;89.51;101042.59;5051894;28;20447;-44
2021/12/23 09:54:39;;;;;;;28.10;21.30;;;;;;;0.27;89.52;101030.53;5051276;28;20434;-43
2021/12/23 09:57:06;;;;;;;30.13;22.13;;;;;;;0.35;89.92;101024.69;5052101;28;20432;-42
2021/12/23 09:59:38;;;;;;;31.03;21.70;;;;;;;0.39;89.75;101008.53;5050936;28;20551;-45
2021/12/23 10:02:06;;;;;;;27.83;22.30;;;;;;;0.33;87.40;100982.81;5051711;28;21107;-43
2021/12/23 10:04:34;;;;;;;30.23;22.00;;;;;;;0.33;87.01;100977.56;5051098;28;20846;-44
2021/12/23 10:07:02;;;;;;;30.67;23.97;;;;;;;0.41;87.73;100979.56;5051761;28;20440;-43
2021/12/23 10:09:42;;;;;;;26.07;19.90;;;;;;;0.48;87.45;100972.84;5050659;28;20463;-44
2021/12/23 10:32:11;;;;;;;24.90;19.07;;;;;;;0.77;85.04;100902.22;5031309;28;20515;-42
2021/12/23 10:37:25;;;;;;;28.73;18.93;;;;;;;0.65;85.10;100884.88;5031224;28;20802;-44
2021/12/23 10:40:10;;;;;;;31.77;23.37;;;;;;;0.57;85.23;100857.47;5030555;28;20460;-45
2021/12/23 10:42:38;;;;;;;30.00;21.67;;;;;;;0.32;85.18;100855.25;5031014;28;20476;-47
2021/12/23 10:45:10;;;;;;;28.57;20.70;;;;;;;0.30;86.00;100858.97;5030737;28;20446;-44
2021/12/23 10:47:47;;;;;;;25.20;19.90;;;;;;;0.34;86.42;100915.44;5030932;28;20527;-46
2021/12/23 10:50:17;;;;;;;24.90;18.60;;;;;;;0.37;86.47;100899.47;5030460;28;20460;-45
2021/12/23 10:52:53;;;;;;;31.90;22.43;;;;;;;0.40;86.65;100886.09;5030396;28;20539;-48
2021/12/23 10:58:15;;;;;;;27.60;19.20;;;;;;;0.48;87.04;100868.75;5030439;28;20515;-48
2021/12/23 11:00:45;;;;;;;24.67;19.43;;;;;;;0.52;86.26;100864.91;5030327;28;20452;-49
2021/12/23 11:03:21;;;;;;;26.10;20.33;;;;;;;0.59;86.87;100856.53;5030441;28;20477;-47
2021/12/23 11:06:01;;;;;;;28.10;20.90;;;;;;;0.60;86.63;100842.44;5030746;28;20435;-46
2021/12/23 11:08:36;;;;;;;31.23;20.73;;;;;;;0.63;86.10;100836.94;5030189;28;20474;-50
2021/12/23 11:37:05;;;;;;;24.37;19.50;;;;;;;0.63;86.27;100790.50;5050122;28;20568;-48
2021/12/23 11:39:49;;;;;;;29.10;19.33;;;;;;;0.60;85.76;100784.72;5049563;28;20498;-49
2021/12/23 11:42:25;;;;;;;25.33;20.00;;;;;;;0.57;84.69;100788.41;5050246;28;20486;-50
2021/12/23 11:44:53;;;;;;;22.73;18.80;;;;;;;0.60;85.28;100796.00;5049522;28;20438;-49
2021/12/23 11:47:23;;;;;;;23.03;18.33;;;;;;;0.63;85.46;100781.81;5050353;28;20442;-51
2021/12/23 11:49:52;;;;;;;26.77;21.47;;;;;;;0.66;86.25;100790.25;5049405;28;20999;-48
2021/12/23 11:52:21;;;;;;;29.33;20.00;;;;;;;0.68;85.78;100784.88;5050094;28;20450;-50
2021/12/23 11:54:48;;;;;;;27.60;19.87;;;;;;;0.69;85.78;100783.94;5049402;28;20449;-49
2021/12/23 11:57:21;;;;;;;24.93;18.23;;;;;;;0.71;86.24;100774.94;5049888;28;20435;-48
2021/12/23 12:00:01;;;;;;;23.50;17.10;;;;;;;0.74;85.68;100773.84;5049335;28;20460;-45
2021/12/23 12:02:31;;;;;;;22.00;18.17;;;;;;;0.70;85.47;100765.41;5050418;28;20486;-47
2021/12/23 12:05:01;;;;;;;22.07;18.53;;;;;;;0.73;85.92;100749.41;5050377;28;20516;-47
2021/12/23 12:07:30;;;;;;;34.27;22.27;;;;;;;0.71;85.29;100747.88;5053717;28;20435;-46
2021/12/23 12:10:00;;;;;;;30.13;19.63;;;;;;;0.66;85.20;100739.56;5052773;28;20459;-45
2021/12/23 12:12:30;;;;;;;27.57;19.70;;;;;;;0.65;85.62;100727.41;5053716;28;20448;-48
2021/12/23 12:14:58;;;;;;;21.77;19.13;;;;;;;0.66;85.84;100697.59;5053520;28;20447;-46